sensor_id;sensor_type;location;lat;lon;timestamp;P1;durP1;ratioP1;P2;durP2;ratioP2
66139;SDS011;52945;51.908;8.364;2024-01-25T00:00:12;10.95;;;2.45;;
66139;SDS011;52945;51.908;8.364;2024-01-25T00:03:14;7.47;;;1.35;;
66139;SDS011;52945;51.908;8.364;2024-01-25T00:06:14;10.75;;;1.73;;
66139;SDS011;52945;51.908;8.364;2024-01-25T00:09:15;5.07;;;1.55;;
66139;SDS011;52945;51.908;8.364;2024-01-25T00:12:15;14.93;;;2.65;;
66139;SDS011;52945;51.908;8.364;2024-01-25T00:15:16;6.85;;;1.80;;
66139;SDS011;52945;51.908;8.364;2024-01-25T00:18:16;12.75;;;2.40;;
66139;SDS011;52945;51.908;8.364;2024-01-25T00:21:17;11.32;;;1.70;;
66139;SDS011;52945;51.908;8.364;2024-01-25T00:24:18;18.80;;;2.70;;
66139;SDS011;52945;51.908;8.364;2024-01-25T00:27:18;10.20;;;2.08;;
66139;SDS011;52945;51.908;8.364;2024-01-25T00:30:19;13.90;;;1.80;;
66139;SDS011;52945;51.908;8.364;2024-01-25T00:33:19;10.98;;;1.92;;
66139;SDS011;52945;51.908;8.364;2024-01-25T00:36:20;11.48;;;2.28;;
66139;SDS011;52945;51.908;8.364;2024-01-25T00:39:21;10.77;;;1.92;;
66139;SDS011;52945;51.908;8.364;2024-01-25T00:42:23;12.52;;;1.83;;
66139;SDS011;52945;51.908;8.364;2024-01-25T00:45:24;9.00;;;1.88;;
66139;SDS011;52945;51.908;8.364;2024-01-25T00:48:25;15.32;;;1.73;;
66139;SDS011;52945;51.908;8.364;2024-01-25T00:51:26;11.75;;;2.05;;
66139;SDS011;52945;51.908;8.364;2024-01-25T00:54:26;12.73;;;1.95;;
66139;SDS011;52945;51.908;8.364;2024-01-25T00:57:27;10.65;;;1.70;;
66139;SDS011;52945;51.908;8.364;2024-01-25T01:00:28;13.65;;;2.72;;
66139;SDS011;52945;51.908;8.364;2024-01-25T01:03:29;11.15;;;2.47;;
66139;SDS011;52945;51.908;8.364;2024-01-25T01:06:31;12.60;;;1.70;;
66139;SDS011;52945;51.908;8.364;2024-01-25T01:09:32;17.00;;;2.80;;
66139;SDS011;52945;51.908;8.364;2024-01-25T01:12:33;10.75;;;2.03;;
66139;SDS011;52945;51.908;8.364;2024-01-25T01:15:33;8.18;;;1.60;;
66139;SDS011;52945;51.908;8.364;2024-01-25T01:18:34;7.47;;;1.55;;
66139;SDS011;52945;51.908;8.364;2024-01-25T01:21:35;12.85;;;1.90;;
66139;SDS011;52945;51.908;8.364;2024-01-25T01:24:35;10.55;;;2.00;;
66139;SDS011;52945;51.908;8.364;2024-01-25T01:27:36;10.35;;;1.75;;
66139;SDS011;52945;51.908;8.364;2024-01-25T01:30:37;10.90;;;1.73;;
66139;SDS011;52945;51.908;8.364;2024-01-25T01:33:41;12.35;;;1.92;;
66139;SDS011;52945;51.908;8.364;2024-01-25T01:36:41;9.65;;;1.67;;
66139;SDS011;52945;51.908;8.364;2024-01-25T01:39:42;13.52;;;2.22;;
66139;SDS011;52945;51.908;8.364;2024-01-25T01:42:43;9.48;;;1.92;;
66139;SDS011;52945;51.908;8.364;2024-01-25T01:45:44;11.77;;;2.08;;
66139;SDS011;52945;51.908;8.364;2024-01-25T01:48:45;9.85;;;1.55;;
66139;SDS011;52945;51.908;8.364;2024-01-25T01:51:46;10.38;;;1.75;;
66139;SDS011;52945;51.908;8.364;2024-01-25T01:54:47;11.23;;;2.22;;
66139;SDS011;52945;51.908;8.364;2024-01-25T01:57:48;8.23;;;1.80;;
66139;SDS011;52945;51.908;8.364;2024-01-25T02:00:49;12.48;;;2.40;;
66139;SDS011;52945;51.908;8.364;2024-01-25T02:03:51;14.63;;;1.70;;
66139;SDS011;52945;51.908;8.364;2024-01-25T02:06:52;10.55;;;2.00;;
66139;SDS011;52945;51.908;8.364;2024-01-25T02:09:52;13.98;;;2.13;;
66139;SDS011;52945;51.908;8.364;2024-01-25T02:12:53;15.00;;;1.88;;
66139;SDS011;52945;51.908;8.364;2024-01-25T02:15:53;7.47;;;1.88;;
66139;SDS011;52945;51.908;8.364;2024-01-25T02:18:54;11.25;;;1.52;;
66139;SDS011;52945;51.908;8.364;2024-01-25T02:21:57;12.10;;;2.13;;
66139;SDS011;52945;51.908;8.364;2024-01-25T02:24:58;13.82;;;2.20;;
66139;SDS011;52945;51.908;8.364;2024-01-25T02:27:59;10.13;;;2.30;;
66139;SDS011;52945;51.908;8.364;2024-01-25T02:31:00;9.90;;;2.22;;
66139;SDS011;52945;51.908;8.364;2024-01-25T02:34:01;10.80;;;1.88;;
66139;SDS011;52945;51.908;8.364;2024-01-25T02:37:01;12.82;;;1.90;;
66139;SDS011;52945;51.908;8.364;2024-01-25T02:40:02;8.55;;;2.05;;
66139;SDS011;52945;51.908;8.364;2024-01-25T02:43:04;12.40;;;2.20;;
66139;SDS011;52945;51.908;8.364;2024-01-25T02:46:05;7.63;;;2.28;;
66139;SDS011;52945;51.908;8.364;2024-01-25T02:49:05;12.32;;;2.63;;
66139;SDS011;52945;51.908;8.364;2024-01-25T02:52:06;14.70;;;2.25;;
66139;SDS011;52945;51.908;8.364;2024-01-25T02:55:07;10.73;;;2.05;;
66139;SDS011;52945;51.908;8.364;2024-01-25T02:58:08;15.23;;;2.13;;
66139;SDS011;52945;51.908;8.364;2024-01-25T03:01:08;12.38;;;1.75;;
66139;SDS011;52945;51.908;8.364;2024-01-25T03:04:09;12.35;;;2.17;;
66139;SDS011;52945;51.908;8.364;2024-01-25T03:07:09;14.85;;;2.17;;
66139;SDS011;52945;51.908;8.364;2024-01-25T03:10:10;10.10;;;1.70;;
66139;SDS011;52945;51.908;8.364;2024-01-25T03:13:10;11.43;;;1.98;;
66139;SDS011;52945;51.908;8.364;2024-01-25T03:16:11;14.23;;;2.30;;
66139;SDS011;52945;51.908;8.364;2024-01-25T03:19:11;12.30;;;1.80;;
66139;SDS011;52945;51.908;8.364;2024-01-25T03:22:14;11.07;;;1.75;;
66139;SDS011;52945;51.908;8.364;2024-01-25T03:25:14;10.85;;;1.92;;
66139;SDS011;52945;51.908;8.364;2024-01-25T03:28:15;16.02;;;2.17;;
66139;SDS011;52945;51.908;8.364;2024-01-25T03:31:16;7.55;;;2.08;;
66139;SDS011;52945;51.908;8.364;2024-01-25T03:34:17;15.90;;;2.33;;
66139;SDS011;52945;51.908;8.364;2024-01-25T03:37:17;9.63;;;1.58;;
66139;SDS011;52945;51.908;8.364;2024-01-25T03:40:18;9.40;;;1.52;;
66139;SDS011;52945;51.908;8.364;2024-01-25T03:43:19;7.32;;;1.67;;
66139;SDS011;52945;51.908;8.364;2024-01-25T03:46:19;8.32;;;1.90;;
66139;SDS011;52945;51.908;8.364;2024-01-25T03:49:20;10.93;;;1.83;;
66139;SDS011;52945;51.908;8.364;2024-01-25T03:52:22;10.85;;;1.80;;
66139;SDS011;52945;51.908;8.364;2024-01-25T03:55:23;12.15;;;1.88;;
66139;SDS011;52945;51.908;8.364;2024-01-25T03:58:24;10.40;;;2.45;;
66139;SDS011;52945;51.908;8.364;2024-01-25T04:01:25;12.88;;;1.75;;
66139;SDS011;52945;51.908;8.364;2024-01-25T04:04:26;8.15;;;2.30;;
66139;SDS011;52945;51.908;8.364;2024-01-25T04:07:27;17.30;;;2.08;;
66139;SDS011;52945;51.908;8.364;2024-01-25T04:10:27;15.93;;;2.13;;
66139;SDS011;52945;51.908;8.364;2024-01-25T04:13:30;22.58;;;2.40;;
66139;SDS011;52945;51.908;8.364;2024-01-25T04:16:30;15.45;;;1.90;;
66139;SDS011;52945;51.908;8.364;2024-01-25T04:19:31;10.35;;;1.70;;
66139;SDS011;52945;51.908;8.364;2024-01-25T04:22:32;14.75;;;2.05;;
66139;SDS011;52945;51.908;8.364;2024-01-25T04:25:33;12.25;;;2.10;;
66139;SDS011;52945;51.908;8.364;2024-01-25T04:28:34;7.05;;;1.88;;
66139;SDS011;52945;51.908;8.364;2024-01-25T04:31:34;11.65;;;2.58;;
66139;SDS011;52945;51.908;8.364;2024-01-25T04:34:35;14.38;;;1.65;;
66139;SDS011;52945;51.908;8.364;2024-01-25T04:37:36;15.90;;;1.77;;
66139;SDS011;52945;51.908;8.364;2024-01-25T04:40:36;16.30;;;1.77;;
66139;SDS011;52945;51.908;8.364;2024-01-25T04:43:37;15.50;;;2.13;;
66139;SDS011;52945;51.908;8.364;2024-01-25T04:46:38;11.52;;;1.52;;
66139;SDS011;52945;51.908;8.364;2024-01-25T04:49:40;10.68;;;2.15;;
66139;SDS011;52945;51.908;8.364;2024-01-25T04:52:41;17.30;;;2.10;;
66139;SDS011;52945;51.908;8.364;2024-01-25T04:55:41;10.75;;;2.13;;
66139;SDS011;52945;51.908;8.364;2024-01-25T04:58:42;12.73;;;1.73;;
66139;SDS011;52945;51.908;8.364;2024-01-25T05:01:42;14.70;;;2.03;;
66139;SDS011;52945;51.908;8.364;2024-01-25T05:04:43;14.15;;;2.33;;
66139;SDS011;52945;51.908;8.364;2024-01-25T05:07:44;12.65;;;2.03;;
66139;SDS011;52945;51.908;8.364;2024-01-25T05:10:44;13.30;;;1.85;;
66139;SDS011;52945;51.908;8.364;2024-01-25T05:13:45;14.05;;;2.03;;
66139;SDS011;52945;51.908;8.364;2024-01-25T05:16:46;5.97;;;1.48;;
66139;SDS011;52945;51.908;8.364;2024-01-25T05:19:46;20.10;;;2.35;;
66139;SDS011;52945;51.908;8.364;2024-01-25T05:22:47;15.70;;;2.53;;
66139;SDS011;52945;51.908;8.364;2024-01-25T05:25:47;11.85;;;1.98;;
66139;SDS011;52945;51.908;8.364;2024-01-25T05:28:49;20.40;;;2.28;;
66139;SDS011;52945;51.908;8.364;2024-01-25T05:31:50;12.82;;;1.83;;
66139;SDS011;52945;51.908;8.364;2024-01-25T05:34:50;13.82;;;2.55;;
66139;SDS011;52945;51.908;8.364;2024-01-25T05:37:51;16.85;;;2.20;;
66139;SDS011;52945;51.908;8.364;2024-01-25T05:40:51;14.15;;;2.47;;
66139;SDS011;52945;51.908;8.364;2024-01-25T05:43:52;11.23;;;1.95;;
66139;SDS011;52945;51.908;8.364;2024-01-25T05:46:52;8.15;;;1.83;;
66139;SDS011;52945;51.908;8.364;2024-01-25T05:49:53;9.07;;;1.92;;
66139;SDS011;52945;51.908;8.364;2024-01-25T05:52:53;8.70;;;1.95;;
66139;SDS011;52945;51.908;8.364;2024-01-25T05:55:54;11.20;;;1.88;;
66139;SDS011;52945;51.908;8.364;2024-01-25T05:58:55;12.20;;;2.10;;
66139;SDS011;52945;51.908;8.364;2024-01-25T06:01:55;11.93;;;2.10;;
66139;SDS011;52945;51.908;8.364;2024-01-25T06:04:56;11.48;;;2.15;;
66139;SDS011;52945;51.908;8.364;2024-01-25T06:07:58;18.05;;;1.85;;
66139;SDS011;52945;51.908;8.364;2024-01-25T06:10:59;9.95;;;2.05;;
66139;SDS011;52945;51.908;8.364;2024-01-25T06:13:59;8.52;;;2.00;;
66139;SDS011;52945;51.908;8.364;2024-01-25T06:17:01;8.55;;;1.90;;
66139;SDS011;52945;51.908;8.364;2024-01-25T06:20:03;12.60;;;2.10;;
66139;SDS011;52945;51.908;8.364;2024-01-25T06:23:04;17.92;;;2.28;;
66139;SDS011;52945;51.908;8.364;2024-01-25T06:26:05;12.88;;;2.67;;
66139;SDS011;52945;51.908;8.364;2024-01-25T06:29:07;17.25;;;2.08;;
66139;SDS011;52945;51.908;8.364;2024-01-25T06:32:08;12.02;;;1.98;;
66139;SDS011;52945;51.908;8.364;2024-01-25T06:38:10;8.60;;;1.85;;
66139;SDS011;52945;51.908;8.364;2024-01-25T06:41:10;10.32;;;1.95;;
66139;SDS011;52945;51.908;8.364;2024-01-25T06:44:11;15.88;;;2.13;;
66139;SDS011;52945;51.908;8.364;2024-01-25T06:47:13;14.48;;;2.50;;
66139;SDS011;52945;51.908;8.364;2024-01-25T06:50:13;16.30;;;2.22;;
66139;SDS011;52945;51.908;8.364;2024-01-25T06:53:14;9.32;;;1.88;;
66139;SDS011;52945;51.908;8.364;2024-01-25T06:56:14;8.02;;;1.92;;
66139;SDS011;52945;51.908;8.364;2024-01-25T06:59:15;12.80;;;2.88;;
66139;SDS011;52945;51.908;8.364;2024-01-25T07:02:15;10.70;;;2.63;;
66139;SDS011;52945;51.908;8.364;2024-01-25T07:05:17;9.95;;;2.00;;
66139;SDS011;52945;51.908;8.364;2024-01-25T07:08:17;6.68;;;1.90;;
66139;SDS011;52945;51.908;8.364;2024-01-25T07:11:18;5.68;;;2.13;;
66139;SDS011;52945;51.908;8.364;2024-01-25T07:14:19;10.07;;;2.50;;
66139;SDS011;52945;51.908;8.364;2024-01-25T07:17:19;10.65;;;2.08;;
66139;SDS011;52945;51.908;8.364;2024-01-25T07:20:20;7.03;;;1.83;;
66139;SDS011;52945;51.908;8.364;2024-01-25T07:23:21;11.70;;;2.20;;
66139;SDS011;52945;51.908;8.364;2024-01-25T07:26:22;14.90;;;2.70;;
66139;SDS011;52945;51.908;8.364;2024-01-25T07:29:23;7.32;;;1.83;;
66139;SDS011;52945;51.908;8.364;2024-01-25T07:32:24;14.93;;;2.40;;
66139;SDS011;52945;51.908;8.364;2024-01-25T07:35:24;10.77;;;2.33;;
66139;SDS011;52945;51.908;8.364;2024-01-25T07:38:25;14.50;;;2.60;;
66139;SDS011;52945;51.908;8.364;2024-01-25T07:41:26;12.88;;;2.42;;
66139;SDS011;52945;51.908;8.364;2024-01-25T07:44:27;15.90;;;2.22;;
66139;SDS011;52945;51.908;8.364;2024-01-25T07:47:27;9.80;;;2.22;;
66139;SDS011;52945;51.908;8.364;2024-01-25T07:50:30;9.00;;;1.90;;
66139;SDS011;52945;51.908;8.364;2024-01-25T07:53:30;12.40;;;1.95;;
66139;SDS011;52945;51.908;8.364;2024-01-25T07:56:32;10.82;;;1.95;;
66139;SDS011;52945;51.908;8.364;2024-01-25T07:59:32;11.32;;;2.55;;
66139;SDS011;52945;51.908;8.364;2024-01-25T08:02:33;17.35;;;2.30;;
66139;SDS011;52945;51.908;8.364;2024-01-25T08:05:34;10.68;;;1.90;;
66139;SDS011;52945;51.908;8.364;2024-01-25T08:08:34;18.10;;;2.47;;
66139;SDS011;52945;51.908;8.364;2024-01-25T08:11:35;7.50;;;2.20;;
66139;SDS011;52945;51.908;8.364;2024-01-25T08:14:35;14.85;;;1.92;;
66139;SDS011;52945;51.908;8.364;2024-01-25T08:17:37;11.18;;;2.35;;
66139;SDS011;52945;51.908;8.364;2024-01-25T08:20:37;11.60;;;2.40;;
66139;SDS011;52945;51.908;8.364;2024-01-25T08:23:38;12.57;;;2.22;;
66139;SDS011;52945;51.908;8.364;2024-01-25T08:26:39;11.85;;;1.80;;
66139;SDS011;52945;51.908;8.364;2024-01-25T08:29:39;15.40;;;2.70;;
66139;SDS011;52945;51.908;8.364;2024-01-25T08:32:41;8.40;;;2.55;;
66139;SDS011;52945;51.908;8.364;2024-01-25T08:35:41;12.90;;;2.78;;
66139;SDS011;52945;51.908;8.364;2024-01-25T08:38:43;13.40;;;2.53;;
66139;SDS011;52945;51.908;8.364;2024-01-25T08:41:48;14.15;;;2.33;;
66139;SDS011;52945;51.908;8.364;2024-01-25T08:44:50;6.22;;;1.95;;
66139;SDS011;52945;51.908;8.364;2024-01-25T08:47:52;9.15;;;2.38;;
66139;SDS011;52945;51.908;8.364;2024-01-25T08:50:53;21.08;;;2.80;;
66139;SDS011;52945;51.908;8.364;2024-01-25T08:56:55;14.55;;;2.45;;
66139;SDS011;52945;51.908;8.364;2024-01-25T08:59:55;11.85;;;1.90;;
66139;SDS011;52945;51.908;8.364;2024-01-25T09:02:58;12.15;;;2.25;;
66139;SDS011;52945;51.908;8.364;2024-01-25T09:05:59;14.48;;;2.40;;
66139;SDS011;52945;51.908;8.364;2024-01-25T09:09:05;9.38;;;1.83;;
66139;SDS011;52945;51.908;8.364;2024-01-25T09:12:06;11.20;;;2.53;;
66139;SDS011;52945;51.908;8.364;2024-01-25T09:15:08;8.85;;;2.22;;
66139;SDS011;52945;51.908;8.364;2024-01-25T09:18:09;10.10;;;2.15;;
66139;SDS011;52945;51.908;8.364;2024-01-25T09:21:09;11.35;;;2.03;;
66139;SDS011;52945;51.908;8.364;2024-01-25T09:24:13;16.17;;;2.53;;
66139;SDS011;52945;51.908;8.364;2024-01-25T09:27:14;9.95;;;2.92;;
66139;SDS011;52945;51.908;8.364;2024-01-25T09:30:14;14.65;;;2.38;;
66139;SDS011;52945;51.908;8.364;2024-01-25T09:33:15;12.15;;;1.90;;
66139;SDS011;52945;51.908;8.364;2024-01-25T09:36:16;16.98;;;2.50;;
66139;SDS011;52945;51.908;8.364;2024-01-25T09:39:17;12.98;;;2.70;;
66139;SDS011;52945;51.908;8.364;2024-01-25T09:42:18;9.27;;;2.20;;
66139;SDS011;52945;51.908;8.364;2024-01-25T09:45:19;19.55;;;2.42;;
66139;SDS011;52945;51.908;8.364;2024-01-25T09:48:20;8.68;;;2.20;;
66139;SDS011;52945;51.908;8.364;2024-01-25T09:51:23;11.35;;;2.63;;
66139;SDS011;52945;51.908;8.364;2024-01-25T09:54:23;14.10;;;2.53;;
66139;SDS011;52945;51.908;8.364;2024-01-25T09:57:28;14.35;;;2.90;;
66139;SDS011;52945;51.908;8.364;2024-01-25T10:00:31;12.27;;;2.65;;
66139;SDS011;52945;51.908;8.364;2024-01-25T10:03:33;15.85;;;2.55;;
66139;SDS011;52945;51.908;8.364;2024-01-25T10:06:35;16.73;;;2.30;;
66139;SDS011;52945;51.908;8.364;2024-01-25T10:12:42;11.88;;;2.15;;
66139;SDS011;52945;51.908;8.364;2024-01-25T10:15:45;15.88;;;3.17;;
66139;SDS011;52945;51.908;8.364;2024-01-25T10:18:47;12.77;;;2.10;;
66139;SDS011;52945;51.908;8.364;2024-01-25T10:21:48;18.40;;;3.05;;
66139;SDS011;52945;51.908;8.364;2024-01-25T10:24:50;17.08;;;2.92;;
66139;SDS011;52945;51.908;8.364;2024-01-25T10:27:53;16.00;;;2.97;;
66139;SDS011;52945;51.908;8.364;2024-01-25T10:31:02;8.82;;;3.00;;
66139;SDS011;52945;51.908;8.364;2024-01-25T10:34:08;12.32;;;2.42;;
66139;SDS011;52945;51.908;8.364;2024-01-25T10:37:13;16.08;;;2.85;;
66139;SDS011;52945;51.908;8.364;2024-01-25T10:40:15;15.93;;;3.03;;
66139;SDS011;52945;51.908;8.364;2024-01-25T10:43:19;18.85;;;2.65;;
66139;SDS011;52945;51.908;8.364;2024-01-25T10:46:19;14.52;;;3.13;;
66139;SDS011;52945;51.908;8.364;2024-01-25T10:49:22;11.40;;;2.70;;
66139;SDS011;52945;51.908;8.364;2024-01-25T10:52:24;10.82;;;2.75;;
66139;SDS011;52945;51.908;8.364;2024-01-25T10:55:25;16.30;;;3.10;;
66139;SDS011;52945;51.908;8.364;2024-01-25T10:58:30;12.95;;;2.53;;
66139;SDS011;52945;51.908;8.364;2024-01-25T11:01:35;20.60;;;2.95;;
66139;SDS011;52945;51.908;8.364;2024-01-25T11:04:36;11.35;;;2.60;;
66139;SDS011;52945;51.908;8.364;2024-01-25T11:07:47;14.02;;;3.33;;
66139;SDS011;52945;51.908;8.364;2024-01-25T11:10:51;7.72;;;2.72;;
66139;SDS011;52945;51.908;8.364;2024-01-25T11:13:55;8.52;;;3.22;;
66139;SDS011;52945;51.908;8.364;2024-01-25T11:19:59;12.15;;;2.58;;
66139;SDS011;52945;51.908;8.364;2024-01-25T11:23:04;14.05;;;2.50;;
66139;SDS011;52945;51.908;8.364;2024-01-25T11:26:07;14.43;;;2.30;;
66139;SDS011;52945;51.908;8.364;2024-01-25T11:32:09;18.77;;;3.05;;
66139;SDS011;52945;51.908;8.364;2024-01-25T11:35:09;14.85;;;3.05;;
66139;SDS011;52945;51.908;8.364;2024-01-25T11:38:13;13.60;;;2.78;;
66139;SDS011;52945;51.908;8.364;2024-01-25T11:41:14;12.02;;;2.95;;
66139;SDS011;52945;51.908;8.364;2024-01-25T11:44:14;19.60;;;3.03;;
66139;SDS011;52945;51.908;8.364;2024-01-25T11:47:15;17.67;;;3.17;;
66139;SDS011;52945;51.908;8.364;2024-01-25T11:50:16;13.63;;;3.17;;
66139;SDS011;52945;51.908;8.364;2024-01-25T11:53:16;15.73;;;3.05;;
66139;SDS011;52945;51.908;8.364;2024-01-25T11:56:19;15.35;;;3.33;;
66139;SDS011;52945;51.908;8.364;2024-01-25T11:59:23;14.77;;;3.25;;
66139;SDS011;52945;51.908;8.364;2024-01-25T12:02:24;21.67;;;4.15;;
66139;SDS011;52945;51.908;8.364;2024-01-25T12:05:26;13.50;;;3.00;;
66139;SDS011;52945;51.908;8.364;2024-01-25T12:08:30;13.90;;;3.67;;
66139;SDS011;52945;51.908;8.364;2024-01-25T12:11:39;16.23;;;3.55;;
66139;SDS011;52945;51.908;8.364;2024-01-25T12:14:43;13.43;;;3.72;;
66139;SDS011;52945;51.908;8.364;2024-01-25T12:17:45;24.00;;;4.03;;
66139;SDS011;52945;51.908;8.364;2024-01-25T12:20:46;17.33;;;3.92;;
66139;SDS011;52945;51.908;8.364;2024-01-25T12:23:47;14.90;;;4.10;;
66139;SDS011;52945;51.908;8.364;2024-01-25T12:26:47;15.05;;;3.67;;
66139;SDS011;52945;51.908;8.364;2024-01-25T12:29:51;18.27;;;4.53;;
66139;SDS011;52945;51.908;8.364;2024-01-25T12:32:56;17.45;;;3.80;;
66139;SDS011;52945;51.908;8.364;2024-01-25T12:35:57;9.30;;;3.58;;
66139;SDS011;52945;51.908;8.364;2024-01-25T12:39:01;17.58;;;3.50;;
66139;SDS011;52945;51.908;8.364;2024-01-25T12:42:02;20.40;;;3.92;;
66139;SDS011;52945;51.908;8.364;2024-01-25T12:45:06;18.95;;;3.80;;
66139;SDS011;52945;51.908;8.364;2024-01-25T12:48:08;12.07;;;3.65;;
66139;SDS011;52945;51.908;8.364;2024-01-25T12:51:09;14.65;;;3.95;;
66139;SDS011;52945;51.908;8.364;2024-01-25T12:54:13;12.38;;;3.22;;
66139;SDS011;52945;51.908;8.364;2024-01-25T12:57:13;17.80;;;3.95;;
66139;SDS011;52945;51.908;8.364;2024-01-25T13:00:14;12.57;;;3.83;;
66139;SDS011;52945;51.908;8.364;2024-01-25T13:03:16;16.27;;;3.42;;
66139;SDS011;52945;51.908;8.364;2024-01-25T13:06:17;13.93;;;3.50;;
66139;SDS011;52945;51.908;8.364;2024-01-25T13:09:17;9.60;;;3.47;;
66139;SDS011;52945;51.908;8.364;2024-01-25T13:12:18;17.17;;;4.43;;
66139;SDS011;52945;51.908;8.364;2024-01-25T13:15:19;16.17;;;4.22;;
66139;SDS011;52945;51.908;8.364;2024-01-25T13:18:20;13.32;;;4.45;;
66139;SDS011;52945;51.908;8.364;2024-01-25T13:21:21;15.30;;;3.25;;
66139;SDS011;52945;51.908;8.364;2024-01-25T13:24:21;16.65;;;4.13;;
66139;SDS011;52945;51.908;8.364;2024-01-25T13:27:22;16.38;;;4.10;;
66139;SDS011;52945;51.908;8.364;2024-01-25T13:30:22;19.83;;;4.60;;
66139;SDS011;52945;51.908;8.364;2024-01-25T13:33:23;14.15;;;4.15;;
66139;SDS011;52945;51.908;8.364;2024-01-25T13:36:23;19.25;;;5.70;;
66139;SDS011;52945;51.908;8.364;2024-01-25T13:39:24;18.73;;;4.65;;
66139;SDS011;52945;51.908;8.364;2024-01-25T13:42:25;16.35;;;5.65;;
66139;SDS011;52945;51.908;8.364;2024-01-25T13:45:26;23.77;;;5.30;;
66139;SDS011;52945;51.908;8.364;2024-01-25T13:48:26;21.25;;;5.53;;
66139;SDS011;52945;51.908;8.364;2024-01-25T13:51:27;22.52;;;5.22;;
66139;SDS011;52945;51.908;8.364;2024-01-25T13:54:28;21.60;;;5.68;;
66139;SDS011;52945;51.908;8.364;2024-01-25T13:57:29;21.92;;;4.97;;
66139;SDS011;52945;51.908;8.364;2024-01-25T14:00:29;16.88;;;5.10;;
66139;SDS011;52945;51.908;8.364;2024-01-25T14:03:30;17.45;;;4.72;;
66139;SDS011;52945;51.908;8.364;2024-01-25T14:06:31;21.23;;;5.22;;
66139;SDS011;52945;51.908;8.364;2024-01-25T14:09:31;18.80;;;4.30;;
66139;SDS011;52945;51.908;8.364;2024-01-25T14:12:32;16.27;;;4.40;;
66139;SDS011;52945;51.908;8.364;2024-01-25T14:15:32;18.20;;;4.18;;
66139;SDS011;52945;51.908;8.364;2024-01-25T14:18:37;15.18;;;4.07;;
66139;SDS011;52945;51.908;8.364;2024-01-25T14:21:39;14.15;;;3.88;;
66139;SDS011;52945;51.908;8.364;2024-01-25T14:24:40;20.17;;;4.47;;
66139;SDS011;52945;51.908;8.364;2024-01-25T14:27:41;15.63;;;3.83;;
66139;SDS011;52945;51.908;8.364;2024-01-25T14:30:42;22.98;;;4.00;;
66139;SDS011;52945;51.908;8.364;2024-01-25T14:33:44;19.27;;;3.92;;
66139;SDS011;52945;51.908;8.364;2024-01-25T14:36:45;17.10;;;3.47;;
66139;SDS011;52945;51.908;8.364;2024-01-25T14:39:46;16.45;;;3.72;;
66139;SDS011;52945;51.908;8.364;2024-01-25T14:45:48;11.57;;;3.17;;
66139;SDS011;52945;51.908;8.364;2024-01-25T14:48:48;17.13;;;3.35;;
66139;SDS011;52945;51.908;8.364;2024-01-25T14:51:49;13.02;;;3.17;;
66139;SDS011;52945;51.908;8.364;2024-01-25T14:54:50;14.68;;;2.97;;
66139;SDS011;52945;51.908;8.364;2024-01-25T14:57:50;21.17;;;3.33;;
66139;SDS011;52945;51.908;8.364;2024-01-25T15:00:51;14.75;;;3.45;;
66139;SDS011;52945;51.908;8.364;2024-01-25T15:03:52;12.43;;;2.80;;
66139;SDS011;52945;51.908;8.364;2024-01-25T15:06:52;11.05;;;2.90;;
66139;SDS011;52945;51.908;8.364;2024-01-25T15:09:53;7.00;;;2.85;;
66139;SDS011;52945;51.908;8.364;2024-01-25T15:12:53;13.50;;;3.00;;
66139;SDS011;52945;51.908;8.364;2024-01-25T15:15:58;20.73;;;3.75;;
66139;SDS011;52945;51.908;8.364;2024-01-25T15:18:59;16.55;;;3.35;;
66139;SDS011;52945;51.908;8.364;2024-01-25T15:21:59;18.33;;;4.00;;
66139;SDS011;52945;51.908;8.364;2024-01-25T15:25:01;11.57;;;2.80;;
66139;SDS011;52945;51.908;8.364;2024-01-25T15:28:01;13.90;;;3.25;;
66139;SDS011;52945;51.908;8.364;2024-01-25T15:31:02;12.18;;;3.33;;
66139;SDS011;52945;51.908;8.364;2024-01-25T15:34:03;12.52;;;3.03;;
66139;SDS011;52945;51.908;8.364;2024-01-25T15:37:04;17.27;;;3.42;;
66139;SDS011;52945;51.908;8.364;2024-01-25T15:40:05;14.13;;;3.78;;
66139;SDS011;52945;51.908;8.364;2024-01-25T15:43:10;10.60;;;3.35;;
66139;SDS011;52945;51.908;8.364;2024-01-25T15:46:11;13.20;;;3.38;;
66139;SDS011;52945;51.908;8.364;2024-01-25T15:49:12;15.95;;;3.13;;
66139;SDS011;52945;51.908;8.364;2024-01-25T15:52:13;14.27;;;3.20;;
66139;SDS011;52945;51.908;8.364;2024-01-25T15:55:13;15.63;;;3.95;;
66139;SDS011;52945;51.908;8.364;2024-01-25T15:58:14;13.85;;;4.20;;
66139;SDS011;52945;51.908;8.364;2024-01-25T16:01:14;13.23;;;4.07;;
66139;SDS011;52945;51.908;8.364;2024-01-25T16:04:15;14.50;;;4.07;;
66139;SDS011;52945;51.908;8.364;2024-01-25T16:07:16;17.10;;;4.57;;
66139;SDS011;52945;51.908;8.364;2024-01-25T16:10:19;23.52;;;5.32;;
66139;SDS011;52945;51.908;8.364;2024-01-25T16:13:20;17.48;;;4.75;;
66139;SDS011;52945;51.908;8.364;2024-01-25T16:16:21;16.10;;;3.92;;
66139;SDS011;52945;51.908;8.364;2024-01-25T16:19:21;13.57;;;3.92;;
66139;SDS011;52945;51.908;8.364;2024-01-25T16:22:23;16.85;;;3.50;;
66139;SDS011;52945;51.908;8.364;2024-01-25T16:25:24;13.38;;;3.33;;
66139;SDS011;52945;51.908;8.364;2024-01-25T16:28:24;18.75;;;3.97;;
66139;SDS011;52945;51.908;8.364;2024-01-25T16:31:25;15.40;;;3.63;;
66139;SDS011;52945;51.908;8.364;2024-01-25T16:34:26;13.13;;;3.92;;
66139;SDS011;52945;51.908;8.364;2024-01-25T16:37:26;17.20;;;4.28;;
66139;SDS011;52945;51.908;8.364;2024-01-25T16:40:27;18.05;;;4.57;;
66139;SDS011;52945;51.908;8.364;2024-01-25T16:43:27;23.30;;;4.38;;
66139;SDS011;52945;51.908;8.364;2024-01-25T16:46:28;17.50;;;4.40;;
66139;SDS011;52945;51.908;8.364;2024-01-25T16:49:30;16.80;;;4.65;;
66139;SDS011;52945;51.908;8.364;2024-01-25T16:52:30;20.10;;;4.32;;
66139;SDS011;52945;51.908;8.364;2024-01-25T16:55:31;11.48;;;4.03;;
66139;SDS011;52945;51.908;8.364;2024-01-25T16:58:32;16.85;;;4.63;;
66139;SDS011;52945;51.908;8.364;2024-01-25T17:01:32;12.32;;;4.03;;
66139;SDS011;52945;51.908;8.364;2024-01-25T17:04:33;16.98;;;3.95;;
66139;SDS011;52945;51.908;8.364;2024-01-25T17:07:33;16.48;;;4.15;;
66139;SDS011;52945;51.908;8.364;2024-01-25T17:10:37;12.02;;;3.45;;
66139;SDS011;52945;51.908;8.364;2024-01-25T17:13:37;9.80;;;3.55;;
66139;SDS011;52945;51.908;8.364;2024-01-25T17:16:38;15.95;;;3.88;;
66139;SDS011;52945;51.908;8.364;2024-01-25T17:19:38;17.38;;;4.13;;
66139;SDS011;52945;51.908;8.364;2024-01-25T17:22:39;17.35;;;3.95;;
66139;SDS011;52945;51.908;8.364;2024-01-25T17:25:41;16.63;;;4.68;;
66139;SDS011;52945;51.908;8.364;2024-01-25T17:28:41;17.40;;;3.60;;
66139;SDS011;52945;51.908;8.364;2024-01-25T17:31:42;13.55;;;4.40;;
66139;SDS011;52945;51.908;8.364;2024-01-25T17:34:43;15.68;;;4.20;;
66139;SDS011;52945;51.908;8.364;2024-01-25T17:37:43;10.30;;;4.10;;
66139;SDS011;52945;51.908;8.364;2024-01-25T17:40:44;18.38;;;4.50;;
66139;SDS011;52945;51.908;8.364;2024-01-25T17:43:44;11.82;;;3.90;;
66139;SDS011;52945;51.908;8.364;2024-01-25T17:46:45;16.10;;;4.50;;
66139;SDS011;52945;51.908;8.364;2024-01-25T17:49:45;16.40;;;5.03;;
66139;SDS011;52945;51.908;8.364;2024-01-25T17:52:46;16.65;;;4.57;;
66139;SDS011;52945;51.908;8.364;2024-01-25T17:55:46;12.57;;;4.07;;
66139;SDS011;52945;51.908;8.364;2024-01-25T17:58:47;17.27;;;4.88;;
66139;SDS011;52945;51.908;8.364;2024-01-25T18:01:48;18.38;;;5.55;;
66139;SDS011;52945;51.908;8.364;2024-01-25T18:04:48;18.27;;;5.15;;
66139;SDS011;52945;51.908;8.364;2024-01-25T18:07:49;18.20;;;5.65;;
66139;SDS011;52945;51.908;8.364;2024-01-25T18:10:50;15.57;;;4.88;;
66139;SDS011;52945;51.908;8.364;2024-01-25T18:13:55;14.98;;;4.93;;